King C — WDE9278 — position and weather

sailwx.info

Track history (hours):
 
Tides and Currents Weather Stations Pressure Air Temp Water Temp Dewpoint Dewpoint Depression Visibility Wind Speed Wind Dir Waves Ship Positions

King C

Owner: Pacific Tugboat Service, San Diego, CA. More information available from US FCC via Universal Licensing System and Coast Guard Vessel Documentation Center.

Last reported at 2017-Sep-19 21:12 UTC. Time now 2017-Sep-22 17:25 UTC.
Position N 32°42' W 117°09'.

Length 26 m; draft 2 m.

Type: Passenger vessel. MMSI: 338022000.

Date/timePositionNaut miles runAvg speedWind from/ knotsBaromVisibWave heightAir tempDewpointWater temp
2017-Sep-19 21:12N 32°42' W 117°09'2 5.2
2017-Sep-19 20:54N 32°43' W 117°11'4 9.9
2017-Sep-19 20:31N 32°40' W 117°14'3 5.6
2017-Sep-19 20:00N 32°38' W 117°16'0 0.3
2017-Sep-19 19:31N 32°38' W 117°16'0 0.4
2017-Sep-19 19:00N 32°38' W 117°16'0 0.7
2017-Sep-19 18:24N 32°38' W 117°16'4 9.5
2017-Sep-19 18:00N 32°41' W 117°14'4 8.2
2017-Sep-19 17:30N 32°42' W 117°09'4 8.1
2017-Sep-19 17:01N 32°41' W 117°14'4 8.0
2017-Sep-19 16:30N 32°38' W 117°16'1 1.3
2017-Sep-19 15:58N 32°38' W 117°16'612.8
2017-Sep-19 15:31N 32°43' W 117°12'  
2017-Sep-15 03:34N 32°42' W 117°09'1 7.3
2017-Sep-15 03:22N 32°42' W 117°10'3 8.8
2017-Sep-15 03:00N 32°41' W 117°14'611.3
2017-Sep-15 02:30N 32°36' W 117°18'0 0.4
2017-Sep-15 02:00N 32°36' W 117°18'0 0.3
2017-Sep-15 01:30N 32°36' W 117°18'3 5.7
2017-Sep-15 01:00N 32°38' W 117°15'6 4.4
2017-Sep-14 23:38N 32°42' W 117°10'215.9
2017-Sep-14 23:30N 32°43' W 117°12'714.3
2017-Sep-14 23:00N 32°37' W 117°16'2 3.5
2017-Sep-14 22:30N 32°36' W 117°18'0 0.2
2017-Sep-14 21:56N 32°36' W 117°18'0 0.3
2017-Sep-14 21:30N 32°36' W 117°18'0 0.6
2017-Sep-14 21:00N 32°36' W 117°18'0 0.1
2017-Sep-14 20:30N 32°36' W 117°18'0 0.6
2017-Sep-14 20:00N 32°36' W 117°17'510.6
2017-Sep-14 19:30N 32°41' W 117°14'3 4.6
2017-Sep-14 18:44N 32°42' W 117°10'312.4
2017-Sep-14 18:30N 32°42' W 117°13'713.9
2017-Sep-14 18:00N 32°36' W 117°18'1 1.2
2017-Sep-14 17:30N 32°36' W 117°18'0 0.7
2017-Sep-14 17:00N 32°36' W 117°19'510.1
2017-Sep-14 16:30N 32°39' W 117°14'5 0.2
2017-Sep-13 21:47N 32°42' W 117°09'2 3.2
2017-Sep-13 21:18N 32°43' W 117°11'310.1
2017-Sep-13 21:01N 32°41' W 117°14'510.3
2017-Sep-13 20:31N 32°38' W 117°18'0 0.9
2017-Sep-13 20:00N 32°37' W 117°18'0 0.5
2017-Sep-13 19:30N 32°37' W 117°17'5 9.7
2017-Sep-13 19:00N 32°41' W 117°14'4 7.5
2017-Sep-13 18:29N 32°42' W 117°09'2 4.6
2017-Sep-13 17:59N 32°43' W 117°11'613.2
2017-Sep-13 17:31N 32°38' W 117°16'2 3.8
2017-Sep-13 17:00N 32°37' W 117°18'3 6.0
2017-Sep-13 16:30N 32°38' W 117°14'  
Track history (hours):
 
Tides and Currents Weather Stations Pressure Air Temp Water Temp Dewpoint Dewpoint Depression Visibility Wind Speed Wind Dir Waves Ship Positions

King C

Owner: Pacific Tugboat Service, San Diego, CA. More information available from US FCC via Universal Licensing System and Coast Guard Vessel Documentation Center.

Last reported at 2017-Sep-19 21:12 UTC. Time now 2017-Sep-22 17:25 UTC.
Position N 32°42' W 117°09'.

Length 26 m; draft 2 m.

Type: Passenger vessel. MMSI: 338022000.

Date/timePositionNaut miles runAvg speedWind from/ knotsBaromVisibWave heightAir tempDewpointWater temp
2017-Sep-19 21:12N 32°42' W 117°09'2 5.2
2017-Sep-19 20:54N 32°43' W 117°11'4 9.9
2017-Sep-19 20:31N 32°40' W 117°14'3 5.6
2017-Sep-19 20:00N 32°38' W 117°16'0 0.3
2017-Sep-19 19:31N 32°38' W 117°16'0 0.4
2017-Sep-19 19:00N 32°38' W 117°16'0 0.7
2017-Sep-19 18:24N 32°38' W 117°16'4 9.5
2017-Sep-19 18:00N 32°41' W 117°14'4 8.2
2017-Sep-19 17:30N 32°42' W 117°09'4 8.1
2017-Sep-19 17:01N 32°41' W 117°14'4 8.0
2017-Sep-19 16:30N 32°38' W 117°16'1 1.3
2017-Sep-19 15:58N 32°38' W 117°16'612.8
2017-Sep-19 15:31N 32°43' W 117°12'  
2017-Sep-15 03:34N 32°42' W 117°09'1 7.3
2017-Sep-15 03:22N 32°42' W 117°10'3 8.8
2017-Sep-15 03:00N 32°41' W 117°14'611.3
2017-Sep-15 02:30N 32°36' W 117°18'0 0.4
2017-Sep-15 02:00N 32°36' W 117°18'0 0.3
2017-Sep-15 01:30N 32°36' W 117°18'3 5.7
2017-Sep-15 01:00N 32°38' W 117°15'6 4.4
2017-Sep-14 23:38N 32°42' W 117°10'215.9
2017-Sep-14 23:30N 32°43' W 117°12'714.3
2017-Sep-14 23:00N 32°37' W 117°16'2 3.5
2017-Sep-14 22:30N 32°36' W 117°18'0 0.2
2017-Sep-14 21:56N 32°36' W 117°18'0 0.3
2017-Sep-14 21:30N 32°36' W 117°18'0 0.6
2017-Sep-14 21:00N 32°36' W 117°18'0 0.1
2017-Sep-14 20:30N 32°36' W 117°18'0 0.6
2017-Sep-14 20:00N 32°36' W 117°17'510.6
2017-Sep-14 19:30N 32°41' W 117°14'3 4.6
2017-Sep-14 18:44N 32°42' W 117°10'312.4
2017-Sep-14 18:30N 32°42' W 117°13'713.9
2017-Sep-14 18:00N 32°36' W 117°18'1 1.2
2017-Sep-14 17:30N 32°36' W 117°18'0 0.7
2017-Sep-14 17:00N 32°36' W 117°19'510.1
2017-Sep-14 16:30N 32°39' W 117°14'5 0.2
2017-Sep-13 21:47N 32°42' W 117°09'2 3.2
2017-Sep-13 21:18N 32°43' W 117°11'310.1
2017-Sep-13 21:01N 32°41' W 117°14'510.3
2017-Sep-13 20:31N 32°38' W 117°18'0 0.9
2017-Sep-13 20:00N 32°37' W 117°18'0 0.5
2017-Sep-13 19:30N 32°37' W 117°17'5 9.7
2017-Sep-13 19:00N 32°41' W 117°14'4 7.5
2017-Sep-13 18:29N 32°42' W 117°09'2 4.6
2017-Sep-13 17:59N 32°43' W 117°11'613.2
2017-Sep-13 17:31N 32°38' W 117°16'2 3.8
2017-Sep-13 17:00N 32°37' W 117°18'3 6.0
2017-Sep-13 16:30N 32°38' W 117°14'  

Dump ship's entire track history